x

Ne Burgeo Bank (44255) Wave Buoy

8:00pm - Sun 7th Feb 2016 All times are AST. -4 hours from GMT.

  • Sig Wave height 12.1ft
  • Peak Period 8s
  • Wind
    40mph, 49mph gusts
  • Sea Temp 35°f
  • Sea Pressure 1014.8mb
  • Ne Burgeo Bank
  • Ne Burgeo Bank

More Historic Weather Station data

Upgrade to MSW Pro to gain access to the past 30 days of data for over 8000 Wavebouys and Weather Stations around the globe.

Join Pro

Comparision Forecast

View Surf forecast
   
Sun 02/07 8:00pm 12ft 8s 40 49 mph 1014.8mb 35f
7:00pm 13ft 8s 40 47 mph 1013.9mb 35f
6:00pm 13ft 8s 34 43 mph 1012.4mb 35f
5:00pm 12ft 8s 38 47 mph 1012.6mb 35f
4:00pm 11ft 7s 36 45 mph 1012.9mb 35f
3:00pm 9.5ft 6s 34 43 mph 1013.4mb 35f
2:00pm 9ft 10s 31 40 mph 1014.8mb 35f
1:00pm 8ft 11s 29 36 mph 1016.2mb 35f
10:00am 7ft 11s 18 22 mph 1019.8mb 35f
9:00am 7ft 11s 16 22 mph 1020.7mb 35f
6:00am 8ft 12s 16 20 mph 1020.8mb 35f
Sat 02/06 11:00pm 9ft 11s 22 29 mph 1021.7mb 35f
4:00pm 10ft 7s 27 34 mph 1016.2mb 35f
1:00pm 11ft 8s 31 40 mph 1011mb 35f
10:00am 15ft 9s 40 51 mph 1005.5mb 35f
9:00am 14.5ft 8s 45 56 mph 1001.7mb 35f
8:00am 12ft 10s 45 58 mph 996.7mb 36f
7:00am 11ft 10s 38 47 mph 991mb 36f
6:00am 10ft 9s 25 31 mph 986.3mb 36f
5:00am 9ft 9s 18 22 mph 987.3mb 36f
4:00am 9ft 7s 20 25 mph 989.3mb 36f
3:00am 8ft 9s 18 20 mph 990.6mb 36f
2:00am 7ft 8s 29 34 mph 991.3mb 36f
1:00am 5.5ft 10s 29 36 mph 993.5mb 36f
12:00am 6ft 9s 11 13 mph 997.5mb 36f
Fri 02/05 11:00pm 6ft 9s 18 20 mph 1000.6mb 36f
10:00pm 6.5ft 9s 20 27 mph 1003.3mb 36f
9:00pm 6ft 10s 22 29 mph 1006mb 36f
8:00pm 6ft 10s 25 31 mph 1008.3mb 36f
7:00pm 6ft 9s 20 25 mph 1010.2mb 36f
6:00pm 6ft 8s 18 22 mph 1012.5mb 36f
5:00pm 7ft 10s 16 18 mph 1014.1mb 36f
4:00pm 7ft 8s 13 16 mph 1015.1mb 35f
3:00pm 6.5ft 8s 7 9 mph 1016.1mb 35f
2:00pm 7.5ft 8s 7 9 mph 1016mb 35f
1:00pm 6.5ft 8s 2 4 mph 1017.5mb 35f
12:00pm 8ft 9s 2 4 mph 1018.4mb 35f
11:00am 8.5ft 9s 4
mph
1019.5mb 35f
10:00am 8.5ft 9s 4
mph
1018.9mb 35f
9:00am 8ft 8s 7 9 mph 1019.3mb 35f
8:00am 8ft 8s 9 11 mph 1018.8mb 35f
7:00am 8ft 9s 4 7 mph 1017.9mb 35f
6:00am 7ft 8s 4 7 mph 1016.8mb 35f
5:00am 8ft 8s 7 9 mph 1016.1mb 35f
4:00am 7.5ft 8s 11 13 mph 1016.3mb 35f
3:00am 8ft 8s 11 13 mph 1015.5mb 35f
2:00am 8ft 9s 13 18 mph 1014.9mb 35f
1:00am 8.5ft 8s 13 16 mph 1013.6mb 35f
12:00am 8ft 8s 13 16 mph 1013.2mb 35f
Thu 02/04 11:00pm 9ft 8s 16 18 mph 1012.9mb 35f
10:00pm 9ft 8s 13 16 mph 1012.6mb 35f
9:00pm 9ft 8s 7 9 mph 1011.6mb 35f
8:00pm 9ft 9s 9 11 mph 1010.9mb 35f
7:00pm 9.5ft 8s 2 4 mph 1012mb 35f
6:00pm 10.5ft 9s 16 20 mph 1011.7mb 35f
5:00pm 11ft 9s 20 25 mph 1012.4mb 35f
4:00pm 12ft 9s 22 27 mph 1011.8mb 35f
3:00pm 13ft 10s 25 31 mph 1012.2mb 36f
2:00pm 13ft 9s 29 38 mph 1011.8mb 36f
1:00pm 13ft 9s 29 34 mph 1012.7mb 36f
12:00pm 14.5ft 9s 31 40 mph 1013.3mb 36f
11:00am 14ft 9s 36 47 mph 1013.9mb 36f
10:00am 12ft 8s 36 45 mph 1014.5mb 36f
9:00am 9ft 7s 7 11 mph 1017.3mb 36f
8:00am 8ft 6s 11 13 mph 1019mb 36f